sensor_id;sensor_type;location;lat;lon;timestamp;temperature;humidity
23371;DHT22;11858;51.056;3.712;2023-09-07T00:00:13;22.30;99.90
23371;DHT22;11858;51.056;3.712;2023-09-07T00:02:39;22.20;99.90
23371;DHT22;11858;51.056;3.712;2023-09-07T00:05:06;22.30;99.90
23371;DHT22;11858;51.056;3.712;2023-09-07T00:07:32;22.30;99.90
23371;DHT22;11858;51.056;3.712;2023-09-07T00:09:58;22.30;99.90
23371;DHT22;11858;51.056;3.712;2023-09-07T00:12:25;22.40;99.90
23371;DHT22;11858;51.056;3.712;2023-09-07T00:14:51;22.40;99.90
23371;DHT22;11858;51.056;3.712;2023-09-07T00:17:17;22.30;99.90
23371;DHT22;11858;51.056;3.712;2023-09-07T00:19:42;22.30;99.90
23371;DHT22;11858;51.056;3.712;2023-09-07T00:22:08;22.30;99.90
23371;DHT22;11858;51.056;3.712;2023-09-07T00:24:35;22.40;99.90
23371;DHT22;11858;51.056;3.712;2023-09-07T00:27:00;22.40;99.90
23371;DHT22;11858;51.056;3.712;2023-09-07T00:29:26;22.40;99.90
23371;DHT22;11858;51.056;3.712;2023-09-07T00:31:51;22.30;99.90
23371;DHT22;11858;51.056;3.712;2023-09-07T00:34:17;22.20;99.90
23371;DHT22;11858;51.056;3.712;2023-09-07T00:36:43;22.10;99.90
23371;DHT22;11858;51.056;3.712;2023-09-07T00:39:08;22.00;99.90
23371;DHT22;11858;51.056;3.712;2023-09-07T00:41:34;22.10;99.90
23371;DHT22;11858;51.056;3.712;2023-09-07T00:44:00;22.20;99.90
23371;DHT22;11858;51.056;3.712;2023-09-07T00:46:25;22.00;99.90
23371;DHT22;11858;51.056;3.712;2023-09-07T00:48:52;22.00;99.90
23371;DHT22;11858;51.056;3.712;2023-09-07T00:51:17;22.00;99.90
23371;DHT22;11858;51.056;3.712;2023-09-07T00:53:43;22.00;99.90
23371;DHT22;11858;51.056;3.712;2023-09-07T00:56:09;21.90;99.90
23371;DHT22;11858;51.056;3.712;2023-09-07T00:58:35;22.00;99.90
23371;DHT22;11858;51.056;3.712;2023-09-07T01:01:01;21.90;99.90
23371;DHT22;11858;51.056;3.712;2023-09-07T01:03:26;21.80;99.90
23371;DHT22;11858;51.056;3.712;2023-09-07T01:06:03;21.80;99.90
23371;DHT22;11858;51.056;3.712;2023-09-07T01:08:35;21.70;99.90
23371;DHT22;11858;51.056;3.712;2023-09-07T01:11:13;21.60;99.90
23371;DHT22;11858;51.056;3.712;2023-09-07T01:13:39;21.70;99.90
23371;DHT22;11858;51.056;3.712;2023-09-07T01:16:05;21.60;99.90
23371;DHT22;11858;51.056;3.712;2023-09-07T01:18:31;21.60;99.90
23371;DHT22;11858;51.056;3.712;2023-09-07T01:20:57;21.60;99.90
23371;DHT22;11858;51.056;3.712;2023-09-07T01:23:24;21.50;99.90
23371;DHT22;11858;51.056;3.712;2023-09-07T01:25:50;21.50;99.90
23371;DHT22;11858;51.056;3.712;2023-09-07T01:28:16;21.40;99.90
23371;DHT22;11858;51.056;3.712;2023-09-07T01:30:42;21.30;99.90
23371;DHT22;11858;51.056;3.712;2023-09-07T01:33:07;21.20;99.90
23371;DHT22;11858;51.056;3.712;2023-09-07T01:35:35;21.20;99.90
23371;DHT22;11858;51.056;3.712;2023-09-07T01:38:02;21.00;99.90
23371;DHT22;11858;51.056;3.712;2023-09-07T01:40:28;21.00;99.90
23371;DHT22;11858;51.056;3.712;2023-09-07T01:42:54;21.00;99.90
23371;DHT22;11858;51.056;3.712;2023-09-07T01:45:19;21.00;99.90
23371;DHT22;11858;51.056;3.712;2023-09-07T01:47:45;20.90;99.90
23371;DHT22;11858;51.056;3.712;2023-09-07T01:50:11;20.80;99.90
23371;DHT22;11858;51.056;3.712;2023-09-07T01:52:36;20.80;99.90
23371;DHT22;11858;51.056;3.712;2023-09-07T01:55:02;20.70;99.90
23371;DHT22;11858;51.056;3.712;2023-09-07T01:57:28;20.60;99.90
23371;DHT22;11858;51.056;3.712;2023-09-07T01:59:54;20.50;99.90
23371;DHT22;11858;51.056;3.712;2023-09-07T02:02:20;20.40;99.90
23371;DHT22;11858;51.056;3.712;2023-09-07T02:04:46;20.40;99.90
23371;DHT22;11858;51.056;3.712;2023-09-07T02:07:12;20.40;99.90
23371;DHT22;11858;51.056;3.712;2023-09-07T02:09:39;20.50;99.90
23371;DHT22;11858;51.056;3.712;2023-09-07T02:12:05;20.60;99.90
23371;DHT22;11858;51.056;3.712;2023-09-07T02:14:30;20.60;99.90
23371;DHT22;11858;51.056;3.712;2023-09-07T02:16:56;20.60;99.90
23371;DHT22;11858;51.056;3.712;2023-09-07T02:19:22;20.50;99.90
23371;DHT22;11858;51.056;3.712;2023-09-07T02:21:49;20.40;99.90
23371;DHT22;11858;51.056;3.712;2023-09-07T02:24:15;20.30;99.90
23371;DHT22;11858;51.056;3.712;2023-09-07T02:26:41;20.30;99.90
23371;DHT22;11858;51.056;3.712;2023-09-07T02:29:13;20.20;99.90
23371;DHT22;11858;51.056;3.712;2023-09-07T02:31:42;20.30;99.90
23371;DHT22;11858;51.056;3.712;2023-09-07T02:34:08;20.30;99.90
23371;DHT22;11858;51.056;3.712;2023-09-07T02:36:34;20.30;99.90
23371;DHT22;11858;51.056;3.712;2023-09-07T02:39:02;20.30;99.90
23371;DHT22;11858;51.056;3.712;2023-09-07T02:41:30;20.30;99.90
23371;DHT22;11858;51.056;3.712;2023-09-07T02:43:56;20.20;99.90
23371;DHT22;11858;51.056;3.712;2023-09-07T02:46:21;20.10;99.90
23371;DHT22;11858;51.056;3.712;2023-09-07T02:48:47;20.20;99.90
23371;DHT22;11858;51.056;3.712;2023-09-07T02:51:13;20.20;99.90
23371;DHT22;11858;51.056;3.712;2023-09-07T02:53:39;20.20;99.90
23371;DHT22;11858;51.056;3.712;2023-09-07T02:56:05;20.10;99.90
23371;DHT22;11858;51.056;3.712;2023-09-07T02:58:31;20.10;99.90
23371;DHT22;11858;51.056;3.712;2023-09-07T03:00:56;20.10;99.90
23371;DHT22;11858;51.056;3.712;2023-09-07T03:03:23;20.20;99.90
23371;DHT22;11858;51.056;3.712;2023-09-07T03:05:49;20.10;99.90
23371;DHT22;11858;51.056;3.712;2023-09-07T03:08:14;20.00;99.90
23371;DHT22;11858;51.056;3.712;2023-09-07T03:10:40;20.00;99.90
23371;DHT22;11858;51.056;3.712;2023-09-07T03:13:09;19.80;99.90
23371;DHT22;11858;51.056;3.712;2023-09-07T03:15:35;19.60;99.90
23371;DHT22;11858;51.056;3.712;2023-09-07T03:18:01;19.50;99.90
23371;DHT22;11858;51.056;3.712;2023-09-07T03:20:26;19.40;99.90
23371;DHT22;11858;51.056;3.712;2023-09-07T03:22:52;19.50;99.90
23371;DHT22;11858;51.056;3.712;2023-09-07T03:25:18;19.60;99.90
23371;DHT22;11858;51.056;3.712;2023-09-07T03:27:44;19.60;99.90
23371;DHT22;11858;51.056;3.712;2023-09-07T03:30:10;19.60;99.90
23371;DHT22;11858;51.056;3.712;2023-09-07T03:32:36;19.70;99.90
23371;DHT22;11858;51.056;3.712;2023-09-07T03:35:03;19.70;99.90
23371;DHT22;11858;51.056;3.712;2023-09-07T03:37:32;19.70;99.90
23371;DHT22;11858;51.056;3.712;2023-09-07T03:39:58;19.60;99.90
23371;DHT22;11858;51.056;3.712;2023-09-07T03:42:23;19.50;99.90
23371;DHT22;11858;51.056;3.712;2023-09-07T03:44:49;19.50;99.90
23371;DHT22;11858;51.056;3.712;2023-09-07T03:47:15;19.50;99.90
23371;DHT22;11858;51.056;3.712;2023-09-07T03:49:41;19.50;99.90
23371;DHT22;11858;51.056;3.712;2023-09-07T03:52:07;19.50;99.90
23371;DHT22;11858;51.056;3.712;2023-09-07T03:54:33;19.50;99.90
23371;DHT22;11858;51.056;3.712;2023-09-07T03:56:58;19.60;99.90
23371;DHT22;11858;51.056;3.712;2023-09-07T03:59:24;19.50;99.90
23371;DHT22;11858;51.056;3.712;2023-09-07T04:01:49;19.60;99.90
23371;DHT22;11858;51.056;3.712;2023-09-07T04:04:15;19.50;99.90
23371;DHT22;11858;51.056;3.712;2023-09-07T04:06:41;19.50;99.90
23371;DHT22;11858;51.056;3.712;2023-09-07T04:09:07;19.40;99.90
23371;DHT22;11858;51.056;3.712;2023-09-07T04:11:32;19.40;99.90
23371;DHT22;11858;51.056;3.712;2023-09-07T04:13:58;19.40;99.90
23371;DHT22;11858;51.056;3.712;2023-09-07T04:16:23;19.40;99.90
23371;DHT22;11858;51.056;3.712;2023-09-07T04:18:49;19.30;99.90
23371;DHT22;11858;51.056;3.712;2023-09-07T04:21:15;19.20;99.90
23371;DHT22;11858;51.056;3.712;2023-09-07T04:23:40;19.20;99.90
23371;DHT22;11858;51.056;3.712;2023-09-07T04:26:10;19.30;99.90
23371;DHT22;11858;51.056;3.712;2023-09-07T04:28:36;19.30;99.90
23371;DHT22;11858;51.056;3.712;2023-09-07T04:31:02;19.30;99.90
23371;DHT22;11858;51.056;3.712;2023-09-07T04:33:32;19.30;99.90
23371;DHT22;11858;51.056;3.712;2023-09-07T04:36:11;19.10;99.90
23371;DHT22;11858;51.056;3.712;2023-09-07T04:38:38;19.00;99.90
23371;DHT22;11858;51.056;3.712;2023-09-07T04:41:10;18.90;99.90
23371;DHT22;11858;51.056;3.712;2023-09-07T04:43:37;18.80;99.90
23371;DHT22;11858;51.056;3.712;2023-09-07T04:46:03;18.80;99.90
23371;DHT22;11858;51.056;3.712;2023-09-07T04:48:29;18.60;99.90
23371;DHT22;11858;51.056;3.712;2023-09-07T04:50:59;18.60;99.90
23371;DHT22;11858;51.056;3.712;2023-09-07T04:53:25;18.60;99.90
23371;DHT22;11858;51.056;3.712;2023-09-07T04:55:50;18.50;99.90
23371;DHT22;11858;51.056;3.712;2023-09-07T04:58:16;18.50;99.90
23371;DHT22;11858;51.056;3.712;2023-09-07T05:00:41;18.60;99.90
23371;DHT22;11858;51.056;3.712;2023-09-07T05:03:07;18.60;99.90
23371;DHT22;11858;51.056;3.712;2023-09-07T05:05:33;18.70;99.90
23371;DHT22;11858;51.056;3.712;2023-09-07T05:07:58;18.60;99.90
23371;DHT22;11858;51.056;3.712;2023-09-07T05:10:24;18.60;99.90
23371;DHT22;11858;51.056;3.712;2023-09-07T05:12:49;18.70;99.90
23371;DHT22;11858;51.056;3.712;2023-09-07T05:15:15;18.70;99.90
23371;DHT22;11858;51.056;3.712;2023-09-07T05:17:41;18.70;99.90
23371;DHT22;11858;51.056;3.712;2023-09-07T05:20:07;18.70;99.90
23371;DHT22;11858;51.056;3.712;2023-09-07T05:22:34;18.70;99.90
23371;DHT22;11858;51.056;3.712;2023-09-07T05:25:03;18.70;99.90
23371;DHT22;11858;51.056;3.712;2023-09-07T05:27:28;18.60;99.90
23371;DHT22;11858;51.056;3.712;2023-09-07T05:29:54;18.50;99.90
23371;DHT22;11858;51.056;3.712;2023-09-07T05:32:19;18.40;99.90
23371;DHT22;11858;51.056;3.712;2023-09-07T05:34:45;18.40;99.90
23371;DHT22;11858;51.056;3.712;2023-09-07T05:37:11;18.40;99.90
23371;DHT22;11858;51.056;3.712;2023-09-07T05:39:36;18.50;99.90
23371;DHT22;11858;51.056;3.712;2023-09-07T05:42:02;18.50;99.90
23371;DHT22;11858;51.056;3.712;2023-09-07T05:44:28;18.50;99.90
23371;DHT22;11858;51.056;3.712;2023-09-07T05:46:53;18.50;99.90
23371;DHT22;11858;51.056;3.712;2023-09-07T05:49:19;18.50;99.90
23371;DHT22;11858;51.056;3.712;2023-09-07T05:51:45;18.50;99.90
23371;DHT22;11858;51.056;3.712;2023-09-07T05:54:10;18.60;99.90
23371;DHT22;11858;51.056;3.712;2023-09-07T05:56:36;18.70;99.90
23371;DHT22;11858;51.056;3.712;2023-09-07T05:59:02;18.80;99.90
23371;DHT22;11858;51.056;3.712;2023-09-07T06:01:27;18.80;99.90
23371;DHT22;11858;51.056;3.712;2023-09-07T06:03:54;18.90;99.90
23371;DHT22;11858;51.056;3.712;2023-09-07T06:06:19;19.00;99.90
23371;DHT22;11858;51.056;3.712;2023-09-07T06:08:45;19.00;99.90
23371;DHT22;11858;51.056;3.712;2023-09-07T06:11:10;19.10;99.90
23371;DHT22;11858;51.056;3.712;2023-09-07T06:13:36;19.10;99.90
23371;DHT22;11858;51.056;3.712;2023-09-07T06:16:02;19.30;99.90
23371;DHT22;11858;51.056;3.712;2023-09-07T06:18:28;19.30;99.90
23371;DHT22;11858;51.056;3.712;2023-09-07T06:20:54;19.30;99.90
23371;DHT22;11858;51.056;3.712;2023-09-07T06:23:19;19.40;99.90
23371;DHT22;11858;51.056;3.712;2023-09-07T06:25:45;19.50;99.90
23371;DHT22;11858;51.056;3.712;2023-09-07T06:28:11;19.60;99.90
23371;DHT22;11858;51.056;3.712;2023-09-07T06:30:36;19.60;99.90
23371;DHT22;11858;51.056;3.712;2023-09-07T06:33:02;19.70;99.90
23371;DHT22;11858;51.056;3.712;2023-09-07T06:35:28;19.70;99.90
23371;DHT22;11858;51.056;3.712;2023-09-07T06:37:54;19.70;99.90
23371;DHT22;11858;51.056;3.712;2023-09-07T06:40:19;19.90;99.90
23371;DHT22;11858;51.056;3.712;2023-09-07T06:42:45;20.00;99.90
23371;DHT22;11858;51.056;3.712;2023-09-07T06:45:10;20.00;99.90
23371;DHT22;11858;51.056;3.712;2023-09-07T06:47:36;20.20;99.90
23371;DHT22;11858;51.056;3.712;2023-09-07T06:50:02;20.20;99.90
23371;DHT22;11858;51.056;3.712;2023-09-07T06:52:28;20.30;99.90
23371;DHT22;11858;51.056;3.712;2023-09-07T06:54:54;20.30;99.90
23371;DHT22;11858;51.056;3.712;2023-09-07T06:57:20;20.40;99.90
23371;DHT22;11858;51.056;3.712;2023-09-07T06:59:46;20.50;99.90
23371;DHT22;11858;51.056;3.712;2023-09-07T07:02:12;20.50;99.90
23371;DHT22;11858;51.056;3.712;2023-09-07T07:04:38;20.60;99.90
23371;DHT22;11858;51.056;3.712;2023-09-07T07:07:04;20.80;99.90
23371;DHT22;11858;51.056;3.712;2023-09-07T07:09:31;20.90;99.90
23371;DHT22;11858;51.056;3.712;2023-09-07T07:11:59;21.00;99.90
23371;DHT22;11858;51.056;3.712;2023-09-07T07:14:25;21.10;99.90
23371;DHT22;11858;51.056;3.712;2023-09-07T07:16:51;21.30;99.90
23371;DHT22;11858;51.056;3.712;2023-09-07T07:19:16;21.40;99.90
23371;DHT22;11858;51.056;3.712;2023-09-07T07:21:42;22.10;99.90
23371;DHT22;11858;51.056;3.712;2023-09-07T07:24:08;23.20;99.90
23371;DHT22;11858;51.056;3.712;2023-09-07T07:26:34;24.50;99.90
23371;DHT22;11858;51.056;3.712;2023-09-07T07:29:00;25.50;99.90
23371;DHT22;11858;51.056;3.712;2023-09-07T07:31:25;26.40;99.90
23371;DHT22;11858;51.056;3.712;2023-09-07T07:33:52;26.80;99.90
23371;DHT22;11858;51.056;3.712;2023-09-07T07:36:18;27.40;99.90
23371;DHT22;11858;51.056;3.712;2023-09-07T07:38:44;27.60;99.90
23371;DHT22;11858;51.056;3.712;2023-09-07T07:41:09;28.10;99.90
23371;DHT22;11858;51.056;3.712;2023-09-07T07:43:35;28.60;99.90
23371;DHT22;11858;51.056;3.712;2023-09-07T07:46:01;28.90;99.90
23371;DHT22;11858;51.056;3.712;2023-09-07T07:48:26;29.20;99.90
23371;DHT22;11858;51.056;3.712;2023-09-07T07:50:54;29.70;99.90
23371;DHT22;11858;51.056;3.712;2023-09-07T07:53:19;29.60;99.90
23371;DHT22;11858;51.056;3.712;2023-09-07T07:55:45;30.20;99.90
23371;DHT22;11858;51.056;3.712;2023-09-07T07:58:11;30.60;99.90
23371;DHT22;11858;51.056;3.712;2023-09-07T08:00:38;30.60;99.90
23371;DHT22;11858;51.056;3.712;2023-09-07T08:03:04;30.90;99.90
23371;DHT22;11858;51.056;3.712;2023-09-07T08:05:35;31.70;99.90
23371;DHT22;11858;51.056;3.712;2023-09-07T08:08:00;31.90;99.90
23371;DHT22;11858;51.056;3.712;2023-09-07T08:10:27;32.30;99.90
23371;DHT22;11858;51.056;3.712;2023-09-07T08:12:56;32.30;99.90
23371;DHT22;11858;51.056;3.712;2023-09-07T08:15:21;32.60;99.90
23371;DHT22;11858;51.056;3.712;2023-09-07T08:17:48;32.50;99.90
23371;DHT22;11858;51.056;3.712;2023-09-07T08:20:14;32.60;99.90
23371;DHT22;11858;51.056;3.712;2023-09-07T08:22:40;32.60;99.90
23371;DHT22;11858;51.056;3.712;2023-09-07T08:25:08;32.40;99.90
23371;DHT22;11858;51.056;3.712;2023-09-07T08:27:34;32.80;99.90
23371;DHT22;11858;51.056;3.712;2023-09-07T08:30:00;33.10;99.90
23371;DHT22;11858;51.056;3.712;2023-09-07T08:32:25;33.10;99.90
23371;DHT22;11858;51.056;3.712;2023-09-07T08:34:51;33.10;99.90
23371;DHT22;11858;51.056;3.712;2023-09-07T08:37:22;33.70;99.90
23371;DHT22;11858;51.056;3.712;2023-09-07T08:39:48;34.00;99.90
23371;DHT22;11858;51.056;3.712;2023-09-07T08:42:14;34.30;99.90
23371;DHT22;11858;51.056;3.712;2023-09-07T08:44:42;34.80;99.90
23371;DHT22;11858;51.056;3.712;2023-09-07T08:47:08;34.50;99.90
23371;DHT22;11858;51.056;3.712;2023-09-07T08:49:34;34.70;99.90
23371;DHT22;11858;51.056;3.712;2023-09-07T08:52:02;34.80;99.90
23371;DHT22;11858;51.056;3.712;2023-09-07T08:54:29;35.30;99.90
23371;DHT22;11858;51.056;3.712;2023-09-07T08:56:57;35.40;99.90
23371;DHT22;11858;51.056;3.712;2023-09-07T08:59:23;35.10;99.90
23371;DHT22;11858;51.056;3.712;2023-09-07T09:01:48;35.30;99.90
23371;DHT22;11858;51.056;3.712;2023-09-07T09:04:14;35.40;99.90
23371;DHT22;11858;51.056;3.712;2023-09-07T09:06:41;35.40;99.90
23371;DHT22;11858;51.056;3.712;2023-09-07T09:09:06;35.30;99.90
23371;DHT22;11858;51.056;3.712;2023-09-07T09:11:32;35.10;99.90
23371;DHT22;11858;51.056;3.712;2023-09-07T09:13:58;35.30;99.90
23371;DHT22;11858;51.056;3.712;2023-09-07T09:16:23;35.30;99.90
23371;DHT22;11858;51.056;3.712;2023-09-07T09:18:55;36.20;99.90
23371;DHT22;11858;51.056;3.712;2023-09-07T09:21:26;36.40;99.90
23371;DHT22;11858;51.056;3.712;2023-09-07T09:23:56;36.50;99.90
23371;DHT22;11858;51.056;3.712;2023-09-07T09:26:22;36.30;99.90
23371;DHT22;11858;51.056;3.712;2023-09-07T09:28:49;36.60;99.90
23371;DHT22;11858;51.056;3.712;2023-09-07T09:31:17;37.10;99.90
23371;DHT22;11858;51.056;3.712;2023-09-07T09:33:44;37.10;99.90
23371;DHT22;11858;51.056;3.712;2023-09-07T09:36:12;37.00;99.90
23371;DHT22;11858;51.056;3.712;2023-09-07T09:38:39;36.80;99.90
23371;DHT22;11858;51.056;3.712;2023-09-07T09:41:06;36.70;99.90
23371;DHT22;11858;51.056;3.712;2023-09-07T09:43:34;36.80;99.90
23371;DHT22;11858;51.056;3.712;2023-09-07T09:46:00;37.30;99.90
23371;DHT22;11858;51.056;3.712;2023-09-07T09:48:27;37.30;99.90
23371;DHT22;11858;51.056;3.712;2023-09-07T09:50:53;37.40;99.90
23371;DHT22;11858;51.056;3.712;2023-09-07T09:53:19;37.80;99.90
23371;DHT22;11858;51.056;3.712;2023-09-07T09:55:49;38.20;99.90
23371;DHT22;11858;51.056;3.712;2023-09-07T09:58:17;37.70;99.90
23371;DHT22;11858;51.056;3.712;2023-09-07T10:00:48;37.90;99.90
23371;DHT22;11858;51.056;3.712;2023-09-07T10:03:33;37.70;99.90
23371;DHT22;11858;51.056;3.712;2023-09-07T10:06:12;38.20;99.90
23371;DHT22;11858;51.056;3.712;2023-09-07T10:09:11;38.70;99.90
23371;DHT22;11858;51.056;3.712;2023-09-07T10:11:39;38.10;99.90
23371;DHT22;11858;51.056;3.712;2023-09-07T10:14:06;38.20;99.90
23371;DHT22;11858;51.056;3.712;2023-09-07T10:16:49;38.60;99.90
23371;DHT22;11858;51.056;3.712;2023-09-07T10:19:19;38.70;99.90
23371;DHT22;11858;51.056;3.712;2023-09-07T10:21:46;38.80;99.90
23371;DHT22;11858;51.056;3.712;2023-09-07T10:24:23;38.80;99.90
23371;DHT22;11858;51.056;3.712;2023-09-07T10:27:01;38.60;99.90
23371;DHT22;11858;51.056;3.712;2023-09-07T10:29:27;38.70;99.90
23371;DHT22;11858;51.056;3.712;2023-09-07T10:31:53;38.70;99.90
23371;DHT22;11858;51.056;3.712;2023-09-07T10:34:19;39.00;99.90
23371;DHT22;11858;51.056;3.712;2023-09-07T10:36:46;39.30;99.90
23371;DHT22;11858;51.056;3.712;2023-09-07T10:39:13;39.30;99.90
23371;DHT22;11858;51.056;3.712;2023-09-07T10:41:42;39.80;99.90
23371;DHT22;11858;51.056;3.712;2023-09-07T10:44:08;39.80;99.90
23371;DHT22;11858;51.056;3.712;2023-09-07T10:46:37;40.00;99.90
23371;DHT22;11858;51.056;3.712;2023-09-07T10:49:03;39.70;99.90
23371;DHT22;11858;51.056;3.712;2023-09-07T10:51:31;39.80;99.90
23371;DHT22;11858;51.056;3.712;2023-09-07T10:53:57;39.70;99.30
23371;DHT22;11858;51.056;3.712;2023-09-07T10:56:24;39.40;99.20
23371;DHT22;11858;51.056;3.712;2023-09-07T10:58:54;39.70;98.90
23371;DHT22;11858;51.056;3.712;2023-09-07T11:01:20;39.70;98.60
23371;DHT22;11858;51.056;3.712;2023-09-07T11:03:46;39.40;98.90
23371;DHT22;11858;51.056;3.712;2023-09-07T11:06:19;39.90;99.00
23371;DHT22;11858;51.056;3.712;2023-09-07T11:08:49;39.60;98.00
23371;DHT22;11858;51.056;3.712;2023-09-07T11:11:15;40.10;99.40
23371;DHT22;11858;51.056;3.712;2023-09-07T11:13:41;39.60;99.30
23371;DHT22;11858;51.056;3.712;2023-09-07T11:16:08;40.50;98.50
23371;DHT22;11858;51.056;3.712;2023-09-07T11:18:35;40.60;97.70
23371;DHT22;11858;51.056;3.712;2023-09-07T11:21:03;40.20;97.90
23371;DHT22;11858;51.056;3.712;2023-09-07T11:23:31;40.30;97.50
23371;DHT22;11858;51.056;3.712;2023-09-07T11:26:07;40.80;97.80
23371;DHT22;11858;51.056;3.712;2023-09-07T11:28:33;40.60;96.40
23371;DHT22;11858;51.056;3.712;2023-09-07T11:30:59;40.20;97.30
23371;DHT22;11858;51.056;3.712;2023-09-07T11:33:25;40.30;96.50
23371;DHT22;11858;51.056;3.712;2023-09-07T11:35:52;40.50;96.50
23371;DHT22;11858;51.056;3.712;2023-09-07T11:38:20;40.20;96.50
23371;DHT22;11858;51.056;3.712;2023-09-07T11:40:46;40.40;97.20
23371;DHT22;11858;51.056;3.712;2023-09-07T11:43:16;40.60;96.30
23371;DHT22;11858;51.056;3.712;2023-09-07T11:45:45;40.50;95.40
23371;DHT22;11858;51.056;3.712;2023-09-07T11:48:11;40.40;96.30
23371;DHT22;11858;51.056;3.712;2023-09-07T11:50:37;40.40;96.50
23371;DHT22;11858;51.056;3.712;2023-09-07T11:53:04;41.10;97.00
23371;DHT22;11858;51.056;3.712;2023-09-07T11:55:31;40.80;95.40
23371;DHT22;11858;51.056;3.712;2023-09-07T11:57:56;41.20;95.70
23371;DHT22;11858;51.056;3.712;2023-09-07T12:00:23;41.40;96.00
23371;DHT22;11858;51.056;3.712;2023-09-07T12:02:49;41.30;95.30
23371;DHT22;11858;51.056;3.712;2023-09-07T12:05:14;41.20;94.70
23371;DHT22;11858;51.056;3.712;2023-09-07T12:07:41;41.30;94.50
23371;DHT22;11858;51.056;3.712;2023-09-07T12:10:11;41.00;94.10
23371;DHT22;11858;51.056;3.712;2023-09-07T12:12:37;40.90;94.50
23371;DHT22;11858;51.056;3.712;2023-09-07T12:15:04;41.00;94.40
23371;DHT22;11858;51.056;3.712;2023-09-07T12:17:30;41.00;94.30
23371;DHT22;11858;51.056;3.712;2023-09-07T12:19:56;41.00;94.80
23371;DHT22;11858;51.056;3.712;2023-09-07T12:22:22;41.20;93.20
23371;DHT22;11858;51.056;3.712;2023-09-07T12:24:47;41.40;93.50
23371;DHT22;11858;51.056;3.712;2023-09-07T12:27:13;41.40;92.80
23371;DHT22;11858;51.056;3.712;2023-09-07T12:29:39;41.80;93.00
23371;DHT22;11858;51.056;3.712;2023-09-07T12:32:05;41.80;92.80
23371;DHT22;11858;51.056;3.712;2023-09-07T12:34:31;41.60;91.90
23371;DHT22;11858;51.056;3.712;2023-09-07T12:36:57;42.10;92.20
23371;DHT22;11858;51.056;3.712;2023-09-07T12:39:22;42.20;91.80
23371;DHT22;11858;51.056;3.712;2023-09-07T12:41:48;42.20;91.20
23371;DHT22;11858;51.056;3.712;2023-09-07T12:44:13;42.40;91.30
23371;DHT22;11858;51.056;3.712;2023-09-07T12:46:39;42.30;90.20
23371;DHT22;11858;51.056;3.712;2023-09-07T12:49:05;42.50;88.70
23371;DHT22;11858;51.056;3.712;2023-09-07T12:51:31;42.50;88.00
23371;DHT22;11858;51.056;3.712;2023-09-07T12:53:57;42.50;88.40
23371;DHT22;11858;51.056;3.712;2023-09-07T12:56:22;42.40;88.40
23371;DHT22;11858;51.056;3.712;2023-09-07T12:58:48;42.10;86.60
23371;DHT22;11858;51.056;3.712;2023-09-07T13:01:15;42.50;85.90
23371;DHT22;11858;51.056;3.712;2023-09-07T13:03:41;42.70;85.60
23371;DHT22;11858;51.056;3.712;2023-09-07T13:06:07;42.80;84.70
23371;DHT22;11858;51.056;3.712;2023-09-07T13:08:34;42.70;82.60
23371;DHT22;11858;51.056;3.712;2023-09-07T13:10:59;42.90;82.90
23371;DHT22;11858;51.056;3.712;2023-09-07T13:13:25;42.80;82.10
23371;DHT22;11858;51.056;3.712;2023-09-07T13:15:56;42.70;81.10
23371;DHT22;11858;51.056;3.712;2023-09-07T13:18:23;43.10;83.70
23371;DHT22;11858;51.056;3.712;2023-09-07T13:20:48;43.50;82.40
23371;DHT22;11858;51.056;3.712;2023-09-07T13:23:26;43.40;81.70
23371;DHT22;11858;51.056;3.712;2023-09-07T13:25:51;43.20;82.00
23371;DHT22;11858;51.056;3.712;2023-09-07T13:28:17;43.50;80.30
23371;DHT22;11858;51.056;3.712;2023-09-07T13:30:43;43.50;80.00
23371;DHT22;11858;51.056;3.712;2023-09-07T13:33:08;43.40;80.60
23371;DHT22;11858;51.056;3.712;2023-09-07T13:35:34;43.20;78.60
23371;DHT22;11858;51.056;3.712;2023-09-07T13:37:59;43.40;80.90
23371;DHT22;11858;51.056;3.712;2023-09-07T13:40:25;42.80;79.00
23371;DHT22;11858;51.056;3.712;2023-09-07T13:42:55;43.10;79.60
23371;DHT22;11858;51.056;3.712;2023-09-07T13:45:20;43.70;79.00
23371;DHT22;11858;51.056;3.712;2023-09-07T13:47:46;44.00;77.60
23371;DHT22;11858;51.056;3.712;2023-09-07T13:50:12;43.30;77.80
23371;DHT22;11858;51.056;3.712;2023-09-07T13:52:37;43.50;78.30
23371;DHT22;11858;51.056;3.712;2023-09-07T13:55:04;43.90;79.30
23371;DHT22;11858;51.056;3.712;2023-09-07T13:57:30;44.40;77.80
23371;DHT22;11858;51.056;3.712;2023-09-07T13:59:56;44.40;76.70
23371;DHT22;11858;51.056;3.712;2023-09-07T14:02:21;43.70;77.30
23371;DHT22;11858;51.056;3.712;2023-09-07T14:04:47;43.50;77.30
23371;DHT22;11858;51.056;3.712;2023-09-07T14:07:15;43.70;77.80
23371;DHT22;11858;51.056;3.712;2023-09-07T14:09:40;43.50;76.50
23371;DHT22;11858;51.056;3.712;2023-09-07T14:12:06;43.70;76.20
23371;DHT22;11858;51.056;3.712;2023-09-07T14:14:32;43.20;77.20
23371;DHT22;11858;51.056;3.712;2023-09-07T14:16:57;43.10;77.00
23371;DHT22;11858;51.056;3.712;2023-09-07T14:19:25;43.20;76.20
23371;DHT22;11858;51.056;3.712;2023-09-07T14:21:56;42.80;76.30
23371;DHT22;11858;51.056;3.712;2023-09-07T14:24:23;42.80;76.20
23371;DHT22;11858;51.056;3.712;2023-09-07T14:26:48;42.40;76.90
23371;DHT22;11858;51.056;3.712;2023-09-07T14:29:14;42.50;76.20
23371;DHT22;11858;51.056;3.712;2023-09-07T14:31:39;43.00;76.30
23371;DHT22;11858;51.056;3.712;2023-09-07T14:34:07;43.10;76.00
23371;DHT22;11858;51.056;3.712;2023-09-07T14:36:33;42.30;75.20
23371;DHT22;11858;51.056;3.712;2023-09-07T14:38:59;40.70;77.10
23371;DHT22;11858;51.056;3.712;2023-09-07T14:41:25;41.20;78.60
23371;DHT22;11858;51.056;3.712;2023-09-07T14:43:50;41.60;77.10
23371;DHT22;11858;51.056;3.712;2023-09-07T14:46:17;41.60;77.30
23371;DHT22;11858;51.056;3.712;2023-09-07T14:48:43;42.20;76.40
23371;DHT22;11858;51.056;3.712;2023-09-07T14:51:09;41.40;75.90
23371;DHT22;11858;51.056;3.712;2023-09-07T14:53:35;41.70;75.60
23371;DHT22;11858;51.056;3.712;2023-09-07T14:56:01;41.90;76.40
23371;DHT22;11858;51.056;3.712;2023-09-07T14:58:27;41.70;76.70
23371;DHT22;11858;51.056;3.712;2023-09-07T15:00:52;41.10;76.00
23371;DHT22;11858;51.056;3.712;2023-09-07T15:03:18;41.80;75.20
23371;DHT22;11858;51.056;3.712;2023-09-07T15:05:44;41.60;75.00
23371;DHT22;11858;51.056;3.712;2023-09-07T15:08:09;41.30;75.50
23371;DHT22;11858;51.056;3.712;2023-09-07T15:10:35;41.90;75.30
23371;DHT22;11858;51.056;3.712;2023-09-07T15:13:01;42.20;75.00
23371;DHT22;11858;51.056;3.712;2023-09-07T15:15:31;42.00;74.50
23371;DHT22;11858;51.056;3.712;2023-09-07T15:18:03;42.00;74.10
23371;DHT22;11858;51.056;3.712;2023-09-07T15:20:29;42.20;73.50
23371;DHT22;11858;51.056;3.712;2023-09-07T15:22:56;41.50;73.30
23371;DHT22;11858;51.056;3.712;2023-09-07T15:25:21;41.50;74.30